A And A — ZGBA7 — position and weather

sailwx.info

Track history (hours):
 
Tides and Currents Weather Stations Pressure Air Temp Water Temp Dewpoint Dewpoint Depression Visibility Wind Speed Wind Dir Waves Ship Positions

A And A

Last reported at 2015-Jul-28 02:28 UTC. Time now 2015-Jul-28 03:29 UTC.
Position N 40°11' E 002°20'.

Type: Pleasure craft. MMSI: 232155000.

Date/timePositionNaut miles runAvg speedWind from/ knotsBaromVisibWave heightAir tempDewpointWater temp
2015-Jul-28 02:28N 40°11' E 002°20'1211.8
2015-Jul-28 01:29N 40°22' E 002°26'1111.6
2015-Jul-28 00:30N 40°32' E 002°32'1111.8
2015-Jul-27 23:33N 40°43' E 002°37'1211.7
2015-Jul-27 22:32N 40°53' E 002°45'14012.7
2015-Jul-27 11:30N 42°57' E 004°14'1212.5
2015-Jul-27 10:33N 43°05' E 004°25'1212.2
2015-Jul-27 09:33N 43°09' E 004°41'1312.5
2015-Jul-27 08:33N 43°09' E 004°59'73 3.6
2015-Jul-26 12:33N 43°01' E 006°38'1212.5
2015-Jul-26 11:34N 43°12' E 006°45'1312.4
2015-Jul-26 10:31N 43°23' E 006°54'9 0.2
2015-Jul-24 19:04N 43°31' E 006°57'0 0.0
2015-Jul-24 18:31N 43°31' E 006°57'0 0.0
2015-Jul-22 20:08N 43°31' E 006°57'0 0.0
2015-Jul-22 10:24N 43°31' E 006°57'  
2015-Jul-20 00:07N 43°31' E 006°57'0 0.0
2015-Jul-19 22:06N 43°31' E 006°57'0 0.0
2015-Jul-19 18:16N 43°31' E 006°57'0 0.1
2015-Jul-19 17:34N 43°31' E 006°57'1010.2
2015-Jul-19 16:33N 43°22' E 006°51'12 9.9
2015-Jul-19 15:24N 43°14' E 006°40'0 0.0
2015-Jul-19 14:30N 43°14' E 006°40'0 0.0
2015-Jul-19 13:28N 43°14' E 006°40'4 4.0
2015-Jul-19 12:33N 43°17' E 006°38'1 0.0
2015-Jul-18 18:17N 43°16' E 006°38'3 4.8
2015-Jul-18 17:33N 43°15' E 006°42'2 1.7
2015-Jul-18 16:33N 43°13' E 006°40'0 0.0
2015-Jul-18 15:34N 43°13' E 006°40'0 0.0
2015-Jul-18 14:33N 43°13' E 006°40'0 0.0
2015-Jul-18 13:30N 43°13' E 006°40'4 3.5
2015-Jul-18 12:30N 43°16' E 006°38'  
Track history (hours):
 
Tides and Currents Weather Stations Pressure Air Temp Water Temp Dewpoint Dewpoint Depression Visibility Wind Speed Wind Dir Waves Ship Positions

A And A

Last reported at 2015-Jul-28 02:28 UTC. Time now 2015-Jul-28 03:29 UTC.
Position N 40°11' E 002°20'.

Type: Pleasure craft. MMSI: 232155000.

Date/timePositionNaut miles runAvg speedWind from/ knotsBaromVisibWave heightAir tempDewpointWater temp
2015-Jul-28 02:28N 40°11' E 002°20'1211.8
2015-Jul-28 01:29N 40°22' E 002°26'1111.6
2015-Jul-28 00:30N 40°32' E 002°32'1111.8
2015-Jul-27 23:33N 40°43' E 002°37'1211.7
2015-Jul-27 22:32N 40°53' E 002°45'14012.7
2015-Jul-27 11:30N 42°57' E 004°14'1212.5
2015-Jul-27 10:33N 43°05' E 004°25'1212.2
2015-Jul-27 09:33N 43°09' E 004°41'1312.5
2015-Jul-27 08:33N 43°09' E 004°59'73 3.6
2015-Jul-26 12:33N 43°01' E 006°38'1212.5
2015-Jul-26 11:34N 43°12' E 006°45'1312.4
2015-Jul-26 10:31N 43°23' E 006°54'9 0.2
2015-Jul-24 19:04N 43°31' E 006°57'0 0.0
2015-Jul-24 18:31N 43°31' E 006°57'0 0.0
2015-Jul-22 20:08N 43°31' E 006°57'0 0.0
2015-Jul-22 10:24N 43°31' E 006°57'  
2015-Jul-20 00:07N 43°31' E 006°57'0 0.0
2015-Jul-19 22:06N 43°31' E 006°57'0 0.0
2015-Jul-19 18:16N 43°31' E 006°57'0 0.1
2015-Jul-19 17:34N 43°31' E 006°57'1010.2
2015-Jul-19 16:33N 43°22' E 006°51'12 9.9
2015-Jul-19 15:24N 43°14' E 006°40'0 0.0
2015-Jul-19 14:30N 43°14' E 006°40'0 0.0
2015-Jul-19 13:28N 43°14' E 006°40'4 4.0
2015-Jul-19 12:33N 43°17' E 006°38'1 0.0
2015-Jul-18 18:17N 43°16' E 006°38'3 4.8
2015-Jul-18 17:33N 43°15' E 006°42'2 1.7
2015-Jul-18 16:33N 43°13' E 006°40'0 0.0
2015-Jul-18 15:34N 43°13' E 006°40'0 0.0
2015-Jul-18 14:33N 43°13' E 006°40'0 0.0
2015-Jul-18 13:30N 43°13' E 006°40'4 3.5
2015-Jul-18 12:30N 43°16' E 006°38'  

Dump ship's entire track history